createdAt,value
2018-08-04T19:37:38.464Z,74.30
2018-08-04T19:40:09.732Z,74.50
2018-08-04T19:42:41.830Z,74.60
2018-08-04T19:45:12.606Z,75.00
2018-08-04T19:47:45.841Z,75.10
2018-08-04T19:50:16.806Z,75.40
2018-08-04T19:52:48.110Z,75.50
2018-08-04T19:55:23.649Z,75.50
2018-08-04T19:57:55.394Z,75.60
2018-08-04T20:00:27.036Z,76.00
2018-08-04T20:02:58.180Z,76.00
2018-08-04T20:05:30.787Z,76.10
2018-08-04T20:08:01.878Z,76.10
2018-08-04T20:10:33.095Z,76.20
2018-08-04T20:13:04.788Z,76.30
2018-08-04T20:15:36.233Z,76.40
2018-08-04T20:18:08.114Z,76.50
2018-08-04T20:20:40.005Z,76.60
2018-08-04T20:23:11.391Z,76.60
2018-08-04T20:25:46.567Z,76.70
2018-08-04T20:28:18.763Z,76.80
2018-08-04T20:30:50.262Z,77.10
2018-08-04T20:33:21.879Z,77.40
2018-08-04T20:35:53.010Z,77.50
2018-08-04T20:38:24.704Z,77.70
2018-08-04T20:40:56.755Z,78.10
2018-08-04T20:43:29.095Z,78.40
2018-08-04T20:46:01.807Z,78.60
2018-08-04T20:48:32.877Z,78.90
2018-08-04T20:51:04.130Z,79.20
2018-08-04T20:53:35.154Z,79.30
2018-08-04T20:56:12.121Z,79.60
2018-08-04T20:58:43.837Z,79.60
2018-08-04T21:01:25.450Z,79.60
2018-08-04T21:04:00.149Z,79.90
2018-08-04T21:06:31.857Z,80.00
2018-08-04T21:09:03.069Z,80.50
2018-08-04T21:11:42.579Z,80.50
2018-08-04T21:14:19.800Z,80.50
2018-08-04T21:16:58.060Z,80.60
2018-08-04T21:19:33.738Z,80.90
2018-08-04T21:22:04.995Z,81.00
2018-08-04T21:24:42.408Z,81.00
2018-08-04T21:27:13.401Z,81.00
2018-08-04T21:32:19.110Z,81.30
2018-08-04T21:34:50.057Z,81.30
2018-08-04T21:37:24.940Z,81.20
2018-08-04T21:39:55.828Z,81.30
2018-08-04T21:42:26.872Z,81.00
2018-08-04T21:47:56.102Z,81.20
2018-08-04T21:50:27.012Z,81.60
2018-08-04T21:52:57.882Z,81.60
2018-08-04T21:55:29.011Z,81.70
2018-08-04T21:57:59.550Z,81.80
2018-08-04T22:00:47.736Z,82.00
2018-08-04T22:03:18.798Z,82.00
2018-08-04T22:05:50.405Z,82.10
2018-08-04T22:08:34.420Z,82.30
2018-08-04T22:11:06.587Z,82.60
2018-08-04T22:13:44.960Z,82.70
2018-08-04T22:16:17.288Z,82.80
2018-08-04T22:18:48.694Z,82.90
2018-08-04T22:21:20.081Z,82.90
2018-08-04T22:23:54.850Z,83.10
2018-08-04T22:26:25.909Z,83.20
2018-08-04T22:28:56.557Z,83.40
2018-08-04T22:31:30.837Z,83.50
2018-08-04T22:34:01.943Z,83.70
2018-08-04T22:36:33.196Z,83.80
2018-08-04T22:39:04.870Z,84.00
2018-08-04T22:41:35.457Z,84.10
2018-08-04T22:44:06.389Z,84.20
2018-08-04T22:46:37.010Z,84.40
2018-08-04T22:49:08.475Z,84.40
2018-08-04T22:51:43.205Z,84.80
2018-08-04T22:54:14.014Z,85.00
2018-08-04T22:56:45.915Z,85.00
2018-08-04T22:59:17.252Z,85.20
2018-08-04T23:01:48.817Z,85.20
2018-08-04T23:06:51.057Z,85.30
2018-08-04T23:09:22.483Z,85.30
2018-08-04T23:11:53.284Z,85.50
2018-08-04T23:14:25.088Z,85.90
2018-08-04T23:16:56.703Z,85.90
2018-08-04T23:19:31.587Z,86.10
2018-08-04T23:22:03.010Z,86.00
2018-08-04T23:24:34.549Z,86.20
2018-08-04T23:27:06.506Z,86.30
2018-08-04T23:29:38.099Z,86.40
2018-08-04T23:32:11.906Z,86.40
2018-08-04T23:34:46.747Z,86.50
2018-08-04T23:37:18.214Z,86.70
2018-08-04T23:39:58.440Z,87.00
2018-08-04T23:42:29.578Z,87.40
2018-08-04T23:45:00.484Z,87.80
2018-08-04T23:47:32.335Z,88.50
2018-08-04T23:50:04.277Z,88.90
2018-08-04T23:52:45.365Z,89.40
2018-08-04T23:55:37.429Z,89.50
2018-08-04T23:58:08.310Z,89.80
